Time;durP1;ratioP1;P1;durP2;ratioP2;P2;SDS_P1;SDS_P2;PMS_P1;PMS_P2;Temp;Humidity;BMP_temperature;BMP_pressure;BME280_temperature;BME280_humidity;BME280_pressure;Samples;Min_cycle;Max_cycle;Signal;HPM_P1;HPM_P2
2022/04/18 00:02:09;;;;;;;14.32;10.80;;;8.80;59.80;;;;;;5080793;28;20039;-82
2022/04/18 00:04:35;;;;;;;14.75;11.60;;;8.70;59.90;;;;;;5097539;28;20080;-81
2022/04/18 00:07:02;;;;;;;16.33;11.27;;;8.70;60.40;;;;;;5114464;28;20495;-81
2022/04/18 00:09:30;;;;;;;13.75;11.82;;;8.70;60.20;;;;;;5097272;28;20122;-82
2022/04/18 00:11:57;;;;;;;15.93;11.50;;;8.60;60.20;;;;;;5114274;28;20074;-81
2022/04/18 00:14:24;;;;;;;14.40;11.57;;;8.60;60.30;;;;;;5114227;28;20048;-81
2022/04/18 00:16:50;;;;;;;17.25;11.23;;;8.60;60.50;;;;;;5097450;28;20495;-81
2022/04/18 00:19:15;;;;;;;14.35;11.13;;;8.60;60.70;;;;;;5114063;28;20091;-81
2022/04/18 00:21:41;;;;;;;12.90;10.55;;;8.60;60.50;;;;;;5114245;28;20044;-81
2022/04/18 00:24:08;;;;;;;15.63;12.05;;;8.50;60.90;;;;;;5114221;28;20110;-81
2022/04/18 00:26:37;;;;;;;14.50;11.52;;;8.50;60.60;;;;;;5097271;28;20483;-80
2022/04/18 00:29:02;;;;;;;14.05;10.80;;;8.50;60.50;;;;;;5114237;28;20055;-82
2022/04/18 00:31:28;;;;;;;14.05;12.40;;;8.40;60.50;;;;;;5113979;28;20039;-82
2022/04/18 00:33:54;;;;;;;14.85;11.10;;;8.40;60.50;;;;;;5097269;28;20044;-80
2022/04/18 00:36:19;;;;;;;15.48;11.95;;;8.30;60.60;;;;;;5080100;28;20052;-82
2022/04/18 00:38:45;;;;;;;14.55;11.88;;;8.40;60.80;;;;;;5096909;28;20042;-81
2022/04/18 00:41:11;;;;;;;14.52;10.80;;;8.30;60.90;;;;;;5079793;28;20074;-81
2022/04/18 00:43:46;;;;;;;14.30;11.15;;;8.30;60.70;;;;;;5097175;28;20070;-81
2022/04/18 00:46:13;;;;;;;17.75;12.20;;;8.20;61.00;;;;;;5096665;28;20044;-81
2022/04/18 00:48:39;;;;;;;14.32;11.32;;;8.20;61.10;;;;;;5113658;28;20054;-81
2022/04/18 00:51:09;;;;;;;14.98;11.95;;;8.10;61.20;;;;;;5096656;28;20108;-81
2022/04/18 00:53:36;;;;;;;16.63;11.90;;;8.10;61.50;;;;;;5113793;28;20437;-81
2022/04/18 00:56:02;;;;;;;15.13;12.25;;;8.00;61.80;;;;;;5113414;28;20135;-82
2022/04/18 00:58:28;;;;;;;15.10;11.93;;;8.00;61.90;;;;;;5113739;28;20031;-80
2022/04/18 01:00:54;;;;;;;13.52;11.38;;;8.00;61.80;;;;;;5096649;28;20426;-82
2022/04/18 01:03:20;;;;;;;14.07;11.18;;;7.90;62.40;;;;;;5078862;28;20039;-80
2022/04/18 01:05:50;;;;;;;15.30;12.23;;;7.90;62.30;;;;;;5113345;28;20047;-81
2022/04/18 01:08:16;;;;;;;14.55;11.55;;;7.80;61.90;;;;;;5096464;28;20035;-80
2022/04/18 01:10:43;;;;;;;16.35;12.77;;;7.80;62.40;;;;;;5096121;28;20438;-81
2022/04/18 01:13:09;;;;;;;17.95;12.80;;;7.80;62.40;;;;;;5113443;28;20051;-81
2022/04/18 01:15:34;;;;;;;15.13;12.10;;;7.80;62.60;;;;;;5112946;28;20480;-80
2022/04/18 01:18:00;;;;;;;13.38;11.57;;;7.80;62.50;;;;;;5115468;27;20040;-81
2022/04/18 01:20:35;;;;;;;15.38;11.98;;;7.80;62.70;;;;;;5099525;27;20039;-80
2022/04/18 01:23:04;;;;;;;16.80;12.52;;;7.70;63.10;;;;;;5099677;27;20097;-81
2022/04/18 01:28:59;;;;;;;15.40;12.05;;;7.70;62.80;;;;;;5101998;27;20386;-81
2022/04/18 01:31:00;;;;;;;15.43;11.63;;;7.60;63.10;;;;;;5084704;27;20039;-81
2022/04/18 01:33:26;;;;;;;15.65;11.90;;;7.70;62.70;;;;;;5099390;27;20483;-81
2022/04/18 01:35:51;;;;;;;16.80;12.40;;;7.70;62.30;;;;;;5116102;27;20047;-81
2022/04/18 01:38:20;;;;;;;19.92;13.05;;;7.70;62.20;;;;;;5116237;27;20039;-81
2022/04/18 01:40:46;;;;;;;14.18;11.68;;;7.70;62.10;;;;;;5099159;27;20079;-81
2022/04/18 01:43:12;;;;;;;15.10;11.18;;;7.80;62.20;;;;;;5116340;27;20042;-81
2022/04/18 01:45:37;;;;;;;20.52;12.95;;;7.80;62.10;;;;;;5099369;27;20034;-81
2022/04/18 01:48:03;;;;;;;16.63;12.45;;;7.80;62.30;;;;;;5082167;27;20406;-81
2022/04/18 01:50:29;;;;;;;16.38;12.07;;;7.80;62.30;;;;;;5099250;27;20080;-81
2022/04/18 01:52:55;;;;;;;18.50;12.80;;;7.80;62.40;;;;;;5115899;27;20479;-81
2022/04/18 01:55:20;;;;;;;14.05;11.90;;;7.80;62.40;;;;;;5099155;27;20039;-81
2022/04/18 01:57:46;;;;;;;15.13;12.07;;;7.80;62.30;;;;;;5081752;28;20479;-82
2022/04/18 02:00:12;;;;;;;14.95;12.50;;;7.80;62.50;;;;;;5115807;27;20071;-81
2022/04/18 02:02:38;;;;;;;15.75;12.00;;;7.80;62.40;;;;;;5099018;27;20042;-81
2022/04/18 02:05:09;;;;;;;16.88;12.93;;;7.70;62.50;;;;;;5081978;27;20126;-81
2022/04/18 02:07:35;;;;;;;14.75;12.27;;;7.70;62.80;;;;;;5099232;27;20031;-81
2022/04/18 02:10:02;;;;;;;14.93;12.07;;;7.70;62.90;;;;;;5115863;28;20440;-80
2022/04/18 02:12:28;;;;;;;15.32;12.80;;;7.60;62.80;;;;;;5098666;28;20039;-81
2022/04/18 02:14:54;;;;;;;16.77;12.60;;;7.60;63.00;;;;;;5115286;27;20039;-80
2022/04/18 02:17:20;;;;;;;16.08;12.32;;;7.50;63.20;;;;;;5115336;28;21158;-82
2022/04/18 02:19:46;;;;;;;16.25;12.48;;;7.50;63.40;;;;;;5098333;28;20452;-81
2022/04/18 02:22:12;;;;;;;16.45;11.98;;;7.50;63.30;;;;;;5081935;28;20035;-81
2022/04/18 02:24:39;;;;;;;19.02;13.23;;;7.40;63.10;;;;;;5115548;28;20031;-80
2022/04/18 02:27:06;;;;;;;13.98;12.50;;;7.40;63.10;;;;;;5115816;28;20130;-81
2022/04/18 02:29:33;;;;;;;15.93;13.63;;;7.20;63.20;;;;;;5098364;28;20050;-81
2022/04/18 02:34:43;;;;;;;;;;;7.10;63.40;;;;;;5115862;28;20095;-80
2022/04/18 02:37:09;;;;;;;14.13;12.45;;;7.10;63.80;;;;;;5115292;28;19923;-81
2022/04/18 02:39:35;;;;;;;17.95;13.18;;;7.10;63.70;;;;;;5098440;28;20039;-80
2022/04/18 02:42:00;;;;;;;17.13;13.40;;;6.90;64.00;;;;;;5081505;28;20043;-82
2022/04/18 02:44:26;;;;;;;25.60;13.77;;;6.90;63.70;;;;;;5115396;28;20031;-81
2022/04/18 02:46:51;;;;;;;16.33;13.32;;;6.90;63.90;;;;;;5115480;28;20039;-80
2022/04/18 02:49:20;;;;;;;17.55;13.50;;;6.80;64.00;;;;;;5098430;28;20058;-81
2022/04/18 02:51:45;;;;;;;17.67;12.68;;;6.80;64.00;;;;;;5115026;28;20483;-81
2022/04/18 02:54:11;;;;;;;18.50;13.57;;;6.80;64.10;;;;;;5098698;28;20057;-80
2022/04/18 02:56:37;;;;;;;16.13;12.93;;;6.80;64.10;;;;;;5115178;28;20384;-80
2022/04/18 02:59:02;;;;;;;18.63;13.32;;;6.80;64.40;;;;;;5115177;28;20042;-80
2022/04/18 03:01:28;;;;;;;18.55;13.88;;;6.80;64.20;;;;;;5098507;28;20035;-80
2022/04/18 03:03:54;;;;;;;17.77;13.85;;;6.80;64.50;;;;;;5115328;28;20064;-81
2022/04/18 03:06:19;;;;;;;14.98;13.38;;;6.70;64.90;;;;;;5098133;28;20118;-81
2022/04/18 03:08:45;;;;;;;17.45;14.57;;;6.60;64.70;;;;;;5081725;28;20078;-80
2022/04/18 03:11:11;;;;;;;17.20;13.13;;;6.70;65.20;;;;;;5115073;28;20046;-81
2022/04/18 03:13:43;;;;;;;18.85;13.60;;;6.60;65.10;;;;;;5098051;28;20456;-81
2022/04/18 03:16:10;;;;;;;17.13;14.00;;;6.60;65.10;;;;;;5114908;28;20488;-80
2022/04/18 03:18:36;;;;;;;16.05;13.70;;;6.60;65.10;;;;;;5114967;28;20058;-81
2022/04/18 03:21:03;;;;;;;17.98;14.35;;;6.60;65.30;;;;;;5098011;28;20035;-80
2022/04/18 03:23:29;;;;;;;19.33;14.13;;;6.60;65.50;;;;;;5115226;28;20095;-80
2022/04/18 03:25:55;;;;;;;20.88;14.45;;;6.60;65.20;;;;;;5116419;27;20046;-81
2022/04/18 03:28:21;;;;;;;19.52;14.32;;;6.50;65.20;;;;;;5101736;27;20079;-80
2022/04/18 03:30:47;;;;;;;17.38;13.07;;;6.50;65.20;;;;;;5101543;27;20070;-80
2022/04/18 03:33:13;;;;;;;18.33;13.70;;;6.50;65.50;;;;;;5101665;27;20126;-80
2022/04/18 03:39:50;;;;;;;15.80;13.35;;;6.50;65.30;;;;;;5101813;27;20157;-81
2022/04/18 03:41:08;;;;;;;21.45;14.88;;;6.50;65.30;;;;;;5118347;27;20087;-80
2022/04/18 03:43:35;;;;;;;15.65;13.65;;;6.50;65.90;;;;;;5101433;27;20126;-80
2022/04/18 03:46:01;;;;;;;17.42;14.85;;;6.40;65.80;;;;;;5101531;27;20051;-81
2022/04/18 03:48:26;;;;;;;19.75;15.45;;;6.40;65.40;;;;;;5118367;27;20034;-81
2022/04/18 03:50:52;;;;;;;18.73;14.57;;;6.30;65.50;;;;;;5084249;27;20079;-82
2022/04/18 03:53:17;;;;;;;18.52;15.93;;;6.30;65.50;;;;;;5084289;27;20043;-81
2022/04/18 03:55:43;;;;;;;17.85;15.40;;;6.20;65.50;;;;;;5101403;27;20043;-81
2022/04/18 03:58:09;;;;;;;15.65;13.20;;;6.20;65.60;;;;;;5101268;27;20439;-81
2022/04/18 04:00:35;;;;;;;18.20;14.15;;;6.20;65.70;;;;;;5084613;27;20125;-80
2022/04/18 04:03:01;;;;;;;20.10;15.07;;;6.20;65.90;;;;;;5101409;27;20363;-81
2022/04/18 04:05:27;;;;;;;17.40;14.45;;;6.20;65.90;;;;;;5117908;27;20035;-80
2022/04/18 04:07:52;;;;;;;20.30;14.85;;;6.10;65.90;;;;;;5100803;27;20039;-80
2022/04/18 04:10:18;;;;;;;19.52;14.07;;;6.10;66.30;;;;;;5100865;27;20071;-80
2022/04/18 04:12:44;;;;;;;19.58;15.82;;;6.10;65.90;;;;;;5100851;27;20046;-80
2022/04/18 04:15:09;;;;;;;18.92;15.15;;;6.10;66.00;;;;;;5100946;27;20530;-80
2022/04/18 04:17:36;;;;;;;19.88;15.00;;;6.00;66.00;;;;;;5117687;27;20047;-81
2022/04/18 04:20:02;;;;;;;21.52;14.85;;;6.00;66.20;;;;;;5117340;27;20063;-80
2022/04/18 04:22:28;;;;;;;21.25;16.05;;;6.00;66.30;;;;;;5100588;27;20039;-80
2022/04/18 04:24:53;;;;;;;17.75;14.52;;;5.80;66.70;;;;;;5100450;27;20042;-81
2022/04/18 04:27:19;;;;;;;18.52;15.02;;;5.80;66.60;;;;;;5117312;27;20039;-80
2022/04/18 04:29:45;;;;;;;18.52;15.27;;;5.60;67.30;;;;;;5117093;27;20041;-80
2022/04/18 04:32:10;;;;;;;20.55;16.23;;;5.60;67.20;;;;;;5117267;27;20093;-80
2022/04/18 04:34:36;;;;;;;19.80;15.43;;;5.60;67.50;;;;;;5117587;27;20039;-81
2022/04/18 04:37:02;;;;;;;19.98;15.80;;;5.60;67.70;;;;;;5100202;27;20482;-80
2022/04/18 04:39:27;;;;;;;18.33;14.70;;;5.50;67.70;;;;;;5117455;27;20395;-80
2022/04/18 04:41:53;;;;;;;21.00;15.63;;;5.50;67.60;;;;;;5100275;27;20434;-80
2022/04/18 04:44:19;;;;;;;19.00;15.30;;;5.60;67.60;;;;;;5117233;27;20035;-80
2022/04/18 04:46:45;;;;;;;23.05;15.80;;;5.60;67.60;;;;;;5100170;27;20035;-80
2022/04/18 04:49:12;;;;;;;18.83;16.02;;;5.50;67.40;;;;;;5117164;27;20452;-80
2022/04/18 04:51:39;;;;;;;20.08;15.68;;;5.60;67.50;;;;;;5117126;27;20043;-80
2022/04/18 04:54:05;;;;;;;20.65;15.95;;;5.60;67.50;;;;;;5116968;27;20047;-80
2022/04/18 04:56:31;;;;;;;20.38;16.15;;;5.60;67.60;;;;;;5116653;27;20436;-81
2022/04/18 04:58:56;;;;;;;21.20;16.52;;;5.60;67.80;;;;;;5099952;27;20039;-80
2022/04/18 05:01:22;;;;;;;19.48;16.13;;;5.60;67.60;;;;;;5116773;27;20122;-80
2022/04/18 05:03:49;;;;;;;20.17;16.67;;;5.60;67.80;;;;;;5099613;27;20089;-80
2022/04/18 05:06:14;;;;;;;20.02;16.05;;;5.60;68.10;;;;;;5100107;27;20440;-80
2022/04/18 05:08:41;;;;;;;20.38;16.08;;;5.60;68.20;;;;;;5100015;27;20042;-80
2022/04/18 05:11:07;;;;;;;18.42;14.52;;;5.60;68.40;;;;;;5116820;27;20066;-81
2022/04/18 05:13:33;;;;;;;22.45;16.83;;;5.60;68.40;;;;;;5099682;27;20506;-80
2022/04/18 05:15:58;;;;;;;18.20;16.05;;;5.60;68.50;;;;;;5116550;27;20053;-80
2022/04/18 05:18:24;;;;;;;20.25;16.02;;;5.60;68.30;;;;;;5082430;27;20043;-80
2022/04/18 05:20:50;;;;;;;19.45;15.50;;;5.60;68.00;;;;;;5099480;27;20043;-80
2022/04/18 05:23:16;;;;;;;19.23;14.65;;;5.70;67.70;;;;;;5116311;27;20041;-81
2022/04/18 05:25:42;;;;;;;20.40;16.10;;;5.80;67.70;;;;;;5082640;27;20035;-80
2022/04/18 05:28:08;;;;;;;19.65;16.67;;;5.80;67.30;;;;;;5099589;27;20041;-81
2022/04/18 05:30:36;;;;;;;18.92;16.15;;;5.90;67.10;;;;;;5116272;27;20035;-80
2022/04/18 05:33:02;;;;;;;19.30;15.70;;;6.00;67.30;;;;;;5116319;27;20039;-80
2022/04/18 05:35:28;;;;;;;20.80;15.52;;;5.90;67.00;;;;;;5083279;27;20046;-79
2022/04/18 05:37:53;;;;;;;18.63;15.05;;;5.90;67.30;;;;;;5116172;27;20406;-79
2022/04/18 05:40:19;;;;;;;21.65;16.70;;;6.00;67.40;;;;;;5082637;27;20088;-79
2022/04/18 05:42:45;;;;;;;19.25;16.52;;;5.90;67.60;;;;;;5099098;27;20107;-81
2022/04/18 05:45:11;;;;;;;20.30;15.48;;;5.90;67.80;;;;;;5116285;27;20031;-80
2022/04/18 05:47:36;;;;;;;18.95;15.55;;;5.90;67.50;;;;;;5081844;27;20035;-80
2022/04/18 05:50:03;;;;;;;19.45;15.70;;;6.00;67.30;;;;;;5081859;27;20123;-79
2022/04/18 05:52:29;;;;;;;21.30;15.65;;;6.10;67.00;;;;;;5082145;27;20061;-80
2022/04/18 05:54:55;;;;;;;18.40;14.60;;;6.10;67.00;;;;;;5116245;27;20035;-80
2022/04/18 05:57:23;;;;;;;21.45;15.75;;;6.10;66.90;;;;;;5098910;27;20096;-80
2022/04/18 05:59:49;;;;;;;21.90;15.07;;;6.20;66.80;;;;;;5082387;27;20074;-80
2022/04/18 06:02:15;;;;;;;19.27;15.82;;;6.30;66.90;;;;;;5082209;28;20061;-80
2022/04/18 06:04:41;;;;;;;20.55;16.42;;;6.40;66.80;;;;;;5115826;27;20043;-80
2022/04/18 06:07:07;;;;;;;20.30;15.77;;;6.50;67.20;;;;;;5098706;27;20039;-80
2022/04/18 06:09:33;;;;;;;21.50;16.13;;;6.50;66.90;;;;;;5098280;27;20406;-80
2022/04/18 06:11:58;;;;;;;20.58;15.90;;;6.60;66.80;;;;;;5115810;27;20050;-80
2022/04/18 06:14:24;;;;;;;18.73;15.60;;;6.70;66.60;;;;;;5115970;28;20043;-80
2022/04/18 06:16:50;;;;;;;19.40;15.52;;;6.80;66.30;;;;;;5098787;28;20517;-80
2022/04/18 06:19:16;;;;;;;19.80;15.18;;;6.90;65.80;;;;;;5098594;28;20058;-80
2022/04/18 06:21:42;;;;;;;20.60;16.35;;;7.00;65.30;;;;;;5115550;28;20491;-80
2022/04/18 06:24:07;;;;;;;22.08;16.90;;;7.00;65.50;;;;;;5098955;28;20035;-79
2022/04/18 06:26:33;;;;;;;18.30;14.95;;;7.10;65.90;;;;;;5081804;28;20504;-81
2022/04/18 06:28:59;;;;;;;19.05;16.13;;;7.30;66.30;;;;;;5098414;28;20314;-80
2022/04/18 06:31:25;;;;;;;23.95;16.48;;;7.40;66.10;;;;;;5081586;28;20126;-81
2022/04/18 06:33:51;;;;;;;21.50;15.65;;;7.40;66.10;;;;;;5081632;28;20039;-80
2022/04/18 06:36:17;;;;;;;21.38;16.45;;;7.50;65.80;;;;;;5115862;28;20054;-81
2022/04/18 06:38:43;;;;;;;21.27;16.70;;;7.60;66.00;;;;;;5098704;28;20035;-80
2022/04/18 06:41:09;;;;;;;17.95;15.73;;;7.70;65.00;;;;;;5098448;28;20380;-82
2022/04/18 06:43:35;;;;;;;23.80;15.82;;;7.90;64.50;;;;;;5115391;28;20070;-81
2022/04/18 06:46:01;;;;;;;20.58;15.27;;;8.00;64.30;;;;;;5115291;28;20047;-81
2022/04/18 06:48:27;;;;;;;19.17;15.50;;;8.10;64.70;;;;;;5097987;28;20405;-80
2022/04/18 06:50:53;;;;;;;20.85;15.18;;;8.10;64.60;;;;;;5081478;28;20056;-82
2022/04/18 06:53:19;;;;;;;26.00;16.00;;;8.30;62.90;;;;;;5115270;28;20043;-80
2022/04/18 06:58:30;;;;;;;21.20;15.93;;;8.60;61.20;;;;;;5100902;28;20043;-80
2022/04/18 07:00:56;;;;;;;19.58;15.32;;;8.70;60.90;;;;;;5116796;27;20046;-80
2022/04/18 07:03:22;;;;;;;20.48;16.48;;;8.90;60.90;;;;;;5102231;27;20035;-79
2022/04/18 07:05:48;;;;;;;21.45;15.88;;;9.00;60.60;;;;;;5102039;27;20084;-79
2022/04/18 07:08:14;;;;;;;19.42;15.15;;;9.10;60.80;;;;;;5119061;27;20035;-81
2022/04/18 07:10:39;;;;;;;17.75;14.32;;;9.20;61.00;;;;;;5101929;27;20039;-80
2022/04/18 07:13:05;;;;;;;19.50;15.27;;;9.30;60.40;;;;;;5118757;27;20031;-82
2022/04/18 07:15:32;;;;;;;19.27;14.85;;;9.50;60.40;;;;;;5102258;27;20039;-81
2022/04/18 07:17:59;;;;;;;18.05;14.57;;;9.60;59.90;;;;;;5101909;27;20047;-80
2022/04/18 07:20:25;;;;;;;19.80;14.95;;;9.60;59.90;;;;;;5118858;27;20051;-80
2022/04/18 07:22:51;;;;;;;19.08;14.48;;;9.80;59.00;;;;;;5085022;27;20039;-80
2022/04/18 07:25:17;;;;;;;18.83;14.63;;;10.00;58.90;;;;;;5118718;27;20039;-81
2022/04/18 07:27:44;;;;;;;19.92;14.52;;;10.10;58.40;;;;;;5093896;28;20043;-80
2022/04/18 07:30:10;;;;;;;19.98;14.48;;;10.20;59.30;;;;;;5060313;28;20048;-81
2022/04/18 07:32:40;;;;;;;18.30;13.68;;;10.30;59.30;;;;;;5093810;28;20058;-81
2022/04/18 07:35:06;;;;;;;20.45;13.02;;;10.40;59.10;;;;;;5093748;28;20039;-81
2022/04/18 07:37:32;;;;;;;19.10;13.75;;;10.50;58.10;;;;;;5093577;28;20032;-80
2022/04/18 07:39:58;;;;;;;17.35;13.63;;;10.60;57.80;;;;;;5060246;28;20044;-81
2022/04/18 07:42:23;;;;;;;18.55;13.43;;;10.70;57.40;;;;;;5059936;28;20039;-80
2022/04/18 07:44:49;;;;;;;16.98;13.70;;;10.90;57.30;;;;;;5043340;28;20044;-82
2022/04/18 07:47:15;;;;;;;16.40;12.93;;;11.00;55.80;;;;;;5093594;28;20040;-80
2022/04/18 07:49:40;;;;;;;19.55;13.93;;;11.00;56.60;;;;;;5093451;28;20106;-81
2022/04/18 07:52:08;;;;;;;15.13;12.55;;;11.20;56.70;;;;;;5076453;28;20055;-81
2022/04/18 07:54:35;;;;;;;15.82;13.13;;;11.30;54.60;;;;;;5060041;28;20536;-81
2022/04/18 07:57:01;;;;;;;15.38;12.88;;;11.50;55.40;;;;;;5059741;28;20036;-80
2022/04/18 07:59:27;;;;;;;16.10;13.00;;;11.50;54.90;;;;;;5093351;28;20420;-81
2022/04/18 08:01:52;;;;;;;16.90;12.30;;;11.60;54.90;;;;;;5059661;28;20044;-80
2022/04/18 08:04:18;;;;;;;17.15;13.75;;;11.80;54.80;;;;;;5066649;27;20035;-81
2022/04/18 08:06:44;;;;;;;13.93;11.40;;;11.90;54.20;;;;;;5084056;27;20484;-80
2022/04/18 08:09:10;;;;;;;16.15;12.65;;;12.00;53.10;;;;;;5117874;27;20046;-80
2022/04/18 08:11:36;;;;;;;16.13;12.18;;;12.00;52.90;;;;;;5117299;27;20043;-81
2022/04/18 08:14:01;;;;;;;14.75;12.25;;;12.10;52.50;;;;;;5118051;27;20136;-81
2022/04/18 08:16:27;;;;;;;17.38;12.20;;;12.30;53.50;;;;;;5100771;27;20027;-81
2022/04/18 08:18:53;;;;;;;15.07;12.27;;;12.50;54.30;;;;;;5117642;27;20441;-80
2022/04/18 08:21:19;;;;;;;15.85;12.38;;;12.50;54.00;;;;;;5100710;27;20387;-81
2022/04/18 08:23:47;;;;;;;13.38;11.88;;;12.60;52.80;;;;;;5117681;27;20118;-81
2022/04/18 08:26:17;;;;;;;15.60;11.50;;;12.70;53.40;;;;;;5117605;27;20075;-81
2022/04/18 08:28:43;;;;;;;13.75;10.27;;;12.90;52.90;;;;;;5100518;27;20079;-82
2022/04/18 08:31:09;;;;;;;14.48;11.65;;;13.00;52.80;;;;;;5100473;27;20046;-81
2022/04/18 08:33:36;;;;;;;12.65;11.10;;;13.10;52.90;;;;;;5117447;27;20085;-82
2022/04/18 08:36:01;;;;;;;13.55;10.90;;;13.30;52.70;;;;;;5117324;27;20043;-83
2022/04/18 08:38:28;;;;;;;14.00;11.60;;;13.40;52.40;;;;;;5100683;27;20088;-81
2022/04/18 08:41:00;;;;;;;16.10;11.23;;;13.50;51.00;;;;;;5117207;27;20074;-81
2022/04/18 08:43:27;;;;;;;14.93;11.68;;;13.60;50.20;;;;;;5117253;27;20525;-82
2022/04/18 08:45:56;;;;;;;14.57;11.57;;;13.70;51.60;;;;;;5100469;27;20095;-82
2022/04/18 08:53:59;;;;;;;14.07;10.35;;;14.10;51.20;;;;;;5117018;27;20131;-83
2022/04/18 08:56:28;;;;;;;11.40;9.32;;;14.30;51.30;;;;;;5099957;27;20039;-82
2022/04/18 08:58:54;;;;;;;12.68;9.68;;;14.40;49.40;;;;;;5099903;27;20068;-82
2022/04/18 09:01:20;;;;;;;11.80;10.02;;;14.50;49.50;;;;;;5099991;27;20043;-84
2022/04/18 09:03:49;;;;;;;17.98;10.88;;;14.60;49.10;;;;;;5100319;27;20043;-83
2022/04/18 09:06:24;;;;;;;10.93;9.25;;;14.80;49.00;;;;;;5100663;27;20134;-82
2022/04/18 09:08:56;;;;;;;11.35;9.13;;;14.90;49.40;;;;;;5100996;27;20046;-83
2022/04/18 09:11:38;;;;;;;14.98;10.15;;;14.90;47.70;;;;;;5116971;27;20042;-84
2022/04/18 09:14:08;;;;;;;12.63;9.20;;;15.00;47.40;;;;;;5116780;27;20046;-82
2022/04/18 09:16:35;;;;;;;11.05;9.30;;;15.20;48.20;;;;;;5082931;27;20050;-83
2022/04/18 09:19:05;;;;;;;12.10;10.32;;;15.30;46.40;;;;;;5082646;27;20055;-85
2022/04/18 09:21:31;;;;;;;10.98;9.68;;;15.30;47.20;;;;;;5116795;27;20081;-82
2022/04/18 09:23:57;;;;;;;15.65;10.18;;;15.40;46.80;;;;;;5115582;27;20045;-82
2022/04/18 09:26:24;;;;;;;10.88;8.50;;;15.50;45.10;;;;;;5082673;27;20035;-82
2022/04/18 09:28:50;;;;;;;10.90;8.95;;;15.50;45.50;;;;;;5099515;27;20127;-82
2022/04/18 09:31:23;;;;;;;10.15;9.15;;;15.70;45.40;;;;;;5082587;27;20070;-83
2022/04/18 09:33:56;;;;;;;11.23;9.57;;;15.80;45.60;;;;;;5099108;27;20120;-82
2022/04/18 09:36:23;;;;;;;11.07;9.07;;;15.90;46.40;;;;;;5099153;27;20039;-84
2022/04/18 09:38:53;;;;;;;10.32;8.55;;;16.00;45.00;;;;;;5099193;27;20486;-82
2022/04/18 09:41:27;;;;;;;10.05;8.25;;;16.10;44.80;;;;;;5099235;27;20101;-85
2022/04/18 09:43:54;;;;;;;11.68;9.50;;;16.30;42.20;;;;;;5116418;27;20144;-84
2022/04/18 09:46:21;;;;;;;11.35;8.13;;;16.40;44.40;;;;;;5115996;27;20035;-82
2022/04/18 09:48:51;;;;;;;9.57;7.82;;;16.60;44.50;;;;;;5082172;27;20043;-82
2022/04/18 09:51:29;;;;;;;10.07;7.97;;;16.70;44.40;;;;;;5082418;27;20047;-82
2022/04/18 09:53:57;;;;;;;9.27;7.18;;;16.90;41.90;;;;;;5115989;27;20051;-83
2022/04/18 09:56:25;;;;;;;8.35;7.10;;;16.90;42.60;;;;;;5099067;27;20424;-82
2022/04/18 09:58:53;;;;;;;7.68;6.93;;;17.00;42.30;;;;;;5115825;27;20035;-83
2022/04/18 10:01:19;;;;;;;7.38;6.40;;;17.10;41.70;;;;;;5098842;27;20027;-83
2022/04/18 10:03:46;;;;;;;9.38;6.93;;;17.30;40.60;;;;;;5115759;27;20031;-82
2022/04/18 10:06:12;;;;;;;7.55;6.75;;;17.30;38.90;;;;;;5082148;27;20095;-81
2022/04/18 10:08:42;;;;;;;8.65;6.78;;;17.30;40.40;;;;;;5082012;28;20051;-82
2022/04/18 10:11:11;;;;;;;9.07;6.90;;;17.50;40.20;;;;;;5098600;27;20126;-82
2022/04/18 10:13:41;;;;;;;7.88;6.45;;;17.70;40.10;;;;;;5115719;27;20091;-83
2022/04/18 10:16:07;;;;;;;7.47;6.60;;;17.70;37.20;;;;;;5098782;28;20047;-83
2022/04/18 10:18:49;;;;;;;7.03;5.93;;;17.80;37.40;;;;;;5081609;27;20047;-82
2022/04/18 10:21:29;;;;;;;7.97;5.45;;;17.80;36.00;;;;;;5115889;28;20364;-82
2022/04/18 10:24:19;;;;;;;8.50;6.25;;;18.00;35.10;;;;;;5098788;28;20097;-83
2022/04/18 10:27:06;;;;;;;6.70;5.60;;;18.20;36.50;;;;;;5098770;28;20443;-85
2022/04/18 10:29:40;;;;;;;6.75;5.93;;;18.30;35.70;;;;;;5115615;28;20049;-82
2022/04/18 10:32:08;;;;;;;6.55;5.90;;;18.20;34.80;;;;;;5098585;28;20082;-83
2022/04/18 10:34:35;;;;;;;6.25;5.38;;;18.40;35.40;;;;;;5099814;27;20394;-82
2022/04/18 10:37:02;;;;;;;6.45;5.75;;;18.50;36.70;;;;;;5102632;27;20050;-84
2022/04/18 10:39:37;;;;;;;7.30;5.47;;;18.60;36.70;;;;;;5102766;27;20585;-83
2022/04/18 10:42:23;;;;;;;7.13;5.93;;;18.50;36.40;;;;;;5119649;27;20367;-82
2022/04/18 10:45:12;;;;;;;8.45;6.13;;;18.60;36.10;;;;;;5119808;27;20477;-83
2022/04/18 10:47:56;;;;;;;8.63;5.82;;;18.70;34.80;;;;;;5119411;27;20508;-81
2022/04/18 10:50:25;;;;;;;7.82;5.88;;;18.70;33.90;;;;;;5102429;27;20112;-82
2022/04/18 10:53:12;;;;;;;7.07;4.88;;;18.70;33.90;;;;;;5102685;27;20129;-83
2022/04/18 10:56:01;;;;;;;5.97;5.30;;;18.90;36.40;;;;;;5119463;27;20490;-82
2022/04/18 10:58:31;;;;;;;6.75;6.07;;;19.20;36.00;;;;;;5119466;27;20039;-82
2022/04/18 11:00:59;;;;;;;6.15;5.50;;;19.10;35.10;;;;;;5086174;27;20172;-82
2022/04/18 11:03:39;;;;;;;7.43;5.30;;;19.20;34.80;;;;;;5085364;27;20039;-83
2022/04/18 11:06:15;;;;;;;8.07;5.72;;;19.40;35.40;;;;;;5102228;27;20039;-82
2022/04/18 11:08:42;;;;;;;6.97;5.53;;;19.40;34.10;;;;;;5101984;27;20091;-82
2022/04/18 11:11:17;;;;;;;7.10;5.40;;;19.50;34.80;;;;;;5119290;27;20126;-84
2022/04/18 11:13:43;;;;;;;6.00;5.03;;;19.70;34.50;;;;;;5119177;27;20035;-82
2022/04/18 11:16:24;;;;;;;7.03;4.35;;;19.40;31.60;;;;;;5118905;27;20179;-82
2022/04/18 11:19:16;;;;;;;5.50;4.60;;;19.50;30.30;;;;;;5118723;27;20051;-82
2022/04/18 11:21:57;;;;;;;6.60;5.00;;;19.70;31.10;;;;;;5101868;27;20039;-83
2022/04/18 11:24:40;;;;;;;6.15;5.35;;;19.90;32.60;;;;;;5102150;27;20195;-82
2022/04/18 11:27:12;;;;;;;4.27;3.80;;;20.20;33.70;;;;;;5101914;27;20035;-82
2022/04/18 11:29:39;;;;;;;5.05;3.95;;;20.40;31.90;;;;;;5118490;27;20755;-85
2022/04/18 11:32:06;;;;;;;5.15;3.60;;;20.30;29.70;;;;;;5101948;27;20432;-82
2022/04/18 11:34:34;;;;;;;4.90;4.40;;;20.50;29.80;;;;;;5101625;27;20031;-82
2022/04/18 11:37:02;;;;;;;6.32;4.55;;;20.50;31.30;;;;;;5118796;27;20043;-82
2022/04/18 11:39:49;;;;;;;5.50;4.80;;;20.50;30.80;;;;;;5118697;27;20047;-82
2022/04/18 11:42:22;;;;;;;6.10;4.20;;;20.50;30.30;;;;;;5101723;27;20042;-82
2022/04/18 11:44:52;;;;;;;5.85;4.35;;;20.50;29.40;;;;;;5118504;27;20046;-82
2022/04/18 11:47:22;;;;;;;4.95;4.22;;;20.70;29.40;;;;;;5100705;27;20410;-82
2022/04/18 11:49:50;;;;;;;4.55;4.15;;;20.80;31.10;;;;;;5101298;27;20039;-83
2022/04/18 11:52:23;;;;;;;5.90;4.63;;;20.80;29.90;;;;;;5118563;27;20099;-82
2022/04/18 11:55:15;;;;;;;5.75;4.55;;;20.90;31.40;;;;;;5101289;27;20054;-83
2022/04/18 11:57:46;;;;;;;5.80;4.50;;;20.80;29.30;;;;;;5108509;27;20139;-82
2022/04/18 12:00:13;;;;;;;6.00;4.35;;;20.90;29.00;;;;;;5118129;27;20032;-82
2022/04/18 12:08:12;;;;;;;4.65;4.25;;;21.20;30.00;;;;;;5118217;27;20035;-82
2022/04/18 12:10:42;;;;;;;5.65;4.70;;;21.40;29.80;;;;;;5117936;27;20050;-82
2022/04/18 12:13:13;;;;;;;6.60;3.90;;;21.60;29.80;;;;;;5085348;27;20062;-81
2022/04/18 12:15:41;;;;;;;6.35;4.85;;;21.70;26.80;;;;;;5117957;27;20444;-82
2022/04/18 12:18:12;;;;;;;4.82;4.25;;;21.60;28.00;;;;;;5100578;27;20087;-83
2022/04/18 12:20:49;;;;;;;6.20;4.57;;;21.50;27.70;;;;;;5117669;27;20039;-83
2022/04/18 12:23:20;;;;;;;7.40;4.50;;;21.40;27.60;;;;;;5117923;27;20107;-82
2022/04/18 12:25:49;;;;;;;5.30;4.43;;;21.50;27.40;;;;;;5100922;27;20031;-84
2022/04/18 12:28:18;;;;;;;6.10;4.45;;;21.50;28.20;;;;;;5117841;27;20125;-82
2022/04/18 12:30:44;;;;;;;5.68;3.92;;;21.40;27.90;;;;;;5117627;27;20100;-81
2022/04/18 12:33:22;;;;;;;4.03;3.63;;;21.30;27.30;;;;;;5100638;27;20448;-82
2022/04/18 12:35:59;;;;;;;5.57;4.25;;;21.50;27.60;;;;;;5100602;27;20582;-82
2022/04/18 12:38:35;;;;;;;4.35;3.22;;;21.70;25.90;;;;;;5117332;27;20039;-82
2022/04/18 12:41:02;;;;;;;4.28;3.40;;;21.80;26.40;;;;;;5100420;27;20041;-83
2022/04/18 12:43:33;;;;;;;4.20;3.80;;;21.90;26.70;;;;;;5100618;27;20118;-81
2022/04/18 12:46:07;;;;;;;7.13;4.25;;;21.70;26.60;;;;;;5117437;27;20043;-83
2022/04/18 12:48:34;;;;;;;5.25;4.00;;;21.50;26.30;;;;;;5117142;27;20510;-81
2022/04/18 12:51:03;;;;;;;5.05;3.83;;;22.00;27.30;;;;;;5083591;27;20078;-83
2022/04/18 12:53:50;;;;;;;5.80;4.20;;;22.10;26.90;;;;;;5116991;27;20031;-82
2022/04/18 12:56:22;;;;;;;5.88;4.30;;;22.10;27.50;;;;;;5117140;27;20491;-82
2022/04/18 12:58:49;;;;;;;4.25;3.85;;;22.30;27.00;;;;;;5099916;27;20031;-81
2022/04/18 13:01:26;;;;;;;5.88;4.03;;;22.40;27.00;;;;;;5099859;27;20043;-82
2022/04/18 13:03:54;;;;;;;5.95;4.75;;;22.50;26.40;;;;;;5116891;27;20091;-82
2022/04/18 13:06:34;;;;;;;5.35;4.65;;;22.10;26.10;;;;;;5100508;27;20035;-80